sensor_id;sensor_type;location;lat;lon;timestamp;temperature;humidity
19164;DHT22;9714;51.208;4.242;2023-05-10T00:02:14;15.10;99.90
19164;DHT22;9714;51.208;4.242;2023-05-10T00:04:41;15.10;99.90
19164;DHT22;9714;51.208;4.242;2023-05-10T00:07:15;15.00;99.90
19164;DHT22;9714;51.208;4.242;2023-05-10T00:09:43;14.90;99.90
19164;DHT22;9714;51.208;4.242;2023-05-10T00:12:10;14.80;99.90
19164;DHT22;9714;51.208;4.242;2023-05-10T00:14:37;14.70;99.90
19164;DHT22;9714;51.208;4.242;2023-05-10T00:17:04;14.70;99.90
19164;DHT22;9714;51.208;4.242;2023-05-10T00:19:32;14.60;99.90
19164;DHT22;9714;51.208;4.242;2023-05-10T00:21:59;14.60;99.90
19164;DHT22;9714;51.208;4.242;2023-05-10T00:24:28;14.60;99.90
19164;DHT22;9714;51.208;4.242;2023-05-10T00:26:55;14.50;99.90
19164;DHT22;9714;51.208;4.242;2023-05-10T00:29:22;14.60;99.90
19164;DHT22;9714;51.208;4.242;2023-05-10T00:31:49;14.40;99.90
19164;DHT22;9714;51.208;4.242;2023-05-10T00:34:16;14.60;99.90
19164;DHT22;9714;51.208;4.242;2023-05-10T00:36:43;14.50;99.90
19164;DHT22;9714;51.208;4.242;2023-05-10T00:39:11;14.30;99.90
19164;DHT22;9714;51.208;4.242;2023-05-10T00:41:39;14.10;99.90
19164;DHT22;9714;51.208;4.242;2023-05-10T00:44:06;14.00;99.90
19164;DHT22;9714;51.208;4.242;2023-05-10T00:46:33;14.30;99.90
19164;DHT22;9714;51.208;4.242;2023-05-10T00:49:01;14.30;99.90
19164;DHT22;9714;51.208;4.242;2023-05-10T00:51:29;14.20;99.90
19164;DHT22;9714;51.208;4.242;2023-05-10T00:53:58;14.10;99.90
19164;DHT22;9714;51.208;4.242;2023-05-10T00:56:25;14.10;99.90
19164;DHT22;9714;51.208;4.242;2023-05-10T00:58:56;13.90;99.90
19164;DHT22;9714;51.208;4.242;2023-05-10T01:01:24;13.90;99.90
19164;DHT22;9714;51.208;4.242;2023-05-10T01:03:51;14.00;99.90
19164;DHT22;9714;51.208;4.242;2023-05-10T01:06:18;14.10;99.90
19164;DHT22;9714;51.208;4.242;2023-05-10T01:08:45;14.00;99.90
19164;DHT22;9714;51.208;4.242;2023-05-10T01:11:13;14.10;99.90
19164;DHT22;9714;51.208;4.242;2023-05-10T01:13:41;14.10;99.90
19164;DHT22;9714;51.208;4.242;2023-05-10T01:16:12;14.20;99.90
19164;DHT22;9714;51.208;4.242;2023-05-10T01:18:42;14.30;99.90
19164;DHT22;9714;51.208;4.242;2023-05-10T01:21:19;14.40;99.90
19164;DHT22;9714;51.208;4.242;2023-05-10T01:27:15;14.40;99.90
19164;DHT22;9714;51.208;4.242;2023-05-10T01:30:05;14.50;99.90
19164;DHT22;9714;51.208;4.242;2023-05-10T01:32:44;14.60;99.90
19164;DHT22;9714;51.208;4.242;2023-05-10T01:35:19;14.70;99.90
19164;DHT22;9714;51.208;4.242;2023-05-10T01:37:52;14.80;99.90
19164;DHT22;9714;51.208;4.242;2023-05-10T01:40:32;14.80;99.90
19164;DHT22;9714;51.208;4.242;2023-05-10T01:43:05;14.70;99.90
19164;DHT22;9714;51.208;4.242;2023-05-10T01:45:38;14.70;99.90
19164;DHT22;9714;51.208;4.242;2023-05-10T01:48:09;14.70;99.90
19164;DHT22;9714;51.208;4.242;2023-05-10T01:50:39;14.80;99.90
19164;DHT22;9714;51.208;4.242;2023-05-10T01:53:10;14.80;99.90
19164;DHT22;9714;51.208;4.242;2023-05-10T01:55:43;14.80;99.90
19164;DHT22;9714;51.208;4.242;2023-05-10T01:58:17;14.80;99.90
19164;DHT22;9714;51.208;4.242;2023-05-10T02:00:47;14.80;99.90
19164;DHT22;9714;51.208;4.242;2023-05-10T02:03:21;14.80;99.90
19164;DHT22;9714;51.208;4.242;2023-05-10T02:05:50;14.80;99.90
19164;DHT22;9714;51.208;4.242;2023-05-10T02:08:19;14.80;99.90
19164;DHT22;9714;51.208;4.242;2023-05-10T02:10:51;14.90;99.90
19164;DHT22;9714;51.208;4.242;2023-05-10T02:13:20;15.00;99.90
19164;DHT22;9714;51.208;4.242;2023-05-10T02:15:49;14.80;99.90
19164;DHT22;9714;51.208;4.242;2023-05-10T02:18:18;14.80;99.90
19164;DHT22;9714;51.208;4.242;2023-05-10T02:20:46;14.90;99.90
19164;DHT22;9714;51.208;4.242;2023-05-10T02:23:13;14.80;99.90
19164;DHT22;9714;51.208;4.242;2023-05-10T02:25:43;14.80;99.90
19164;DHT22;9714;51.208;4.242;2023-05-10T02:28:12;14.80;99.90
19164;DHT22;9714;51.208;4.242;2023-05-10T02:30:40;14.90;99.90
19164;DHT22;9714;51.208;4.242;2023-05-10T02:33:07;14.80;99.90
19164;DHT22;9714;51.208;4.242;2023-05-10T02:35:37;14.80;99.90
19164;DHT22;9714;51.208;4.242;2023-05-10T02:38:05;14.70;99.90
19164;DHT22;9714;51.208;4.242;2023-05-10T02:40:33;14.70;99.90
19164;DHT22;9714;51.208;4.242;2023-05-10T02:43:02;14.80;99.90
19164;DHT22;9714;51.208;4.242;2023-05-10T02:45:31;14.80;99.90
19164;DHT22;9714;51.208;4.242;2023-05-10T02:47:59;14.70;99.90
19164;DHT22;9714;51.208;4.242;2023-05-10T02:50:28;14.70;99.90
19164;DHT22;9714;51.208;4.242;2023-05-10T02:53:01;14.60;99.90
19164;DHT22;9714;51.208;4.242;2023-05-10T02:55:38;14.60;99.90
19164;DHT22;9714;51.208;4.242;2023-05-10T02:58:05;14.70;99.90
19164;DHT22;9714;51.208;4.242;2023-05-10T03:00:33;14.60;99.90
19164;DHT22;9714;51.208;4.242;2023-05-10T03:03:01;14.70;99.90
19164;DHT22;9714;51.208;4.242;2023-05-10T03:05:28;14.40;99.90
19164;DHT22;9714;51.208;4.242;2023-05-10T03:08:00;14.40;99.90
19164;DHT22;9714;51.208;4.242;2023-05-10T03:10:31;14.50;99.90
19164;DHT22;9714;51.208;4.242;2023-05-10T03:13:09;14.40;99.90
19164;DHT22;9714;51.208;4.242;2023-05-10T03:15:46;14.40;99.90
19164;DHT22;9714;51.208;4.242;2023-05-10T03:18:18;14.40;99.90
19164;DHT22;9714;51.208;4.242;2023-05-10T03:20:49;14.50;99.90
19164;DHT22;9714;51.208;4.242;2023-05-10T03:23:27;14.40;99.90
19164;DHT22;9714;51.208;4.242;2023-05-10T03:25:55;14.40;99.90
19164;DHT22;9714;51.208;4.242;2023-05-10T03:28:36;14.40;99.90
19164;DHT22;9714;51.208;4.242;2023-05-10T03:31:06;14.30;99.90
19164;DHT22;9714;51.208;4.242;2023-05-10T03:33:34;14.30;99.90
19164;DHT22;9714;51.208;4.242;2023-05-10T03:36:01;14.50;99.90
19164;DHT22;9714;51.208;4.242;2023-05-10T03:38:30;14.60;99.90
19164;DHT22;9714;51.208;4.242;2023-05-10T03:40:57;14.60;99.90
19164;DHT22;9714;51.208;4.242;2023-05-10T03:43:25;14.50;99.90
19164;DHT22;9714;51.208;4.242;2023-05-10T03:45:52;14.40;99.90
19164;DHT22;9714;51.208;4.242;2023-05-10T03:48:20;14.40;99.90
19164;DHT22;9714;51.208;4.242;2023-05-10T03:50:48;14.40;99.90
19164;DHT22;9714;51.208;4.242;2023-05-10T03:53:16;14.50;99.90
19164;DHT22;9714;51.208;4.242;2023-05-10T03:55:45;14.60;99.90
19164;DHT22;9714;51.208;4.242;2023-05-10T03:58:12;14.50;99.90
19164;DHT22;9714;51.208;4.242;2023-05-10T04:00:39;14.30;99.90
19164;DHT22;9714;51.208;4.242;2023-05-10T04:03:15;14.30;99.90
19164;DHT22;9714;51.208;4.242;2023-05-10T04:05:44;14.60;99.90
19164;DHT22;9714;51.208;4.242;2023-05-10T04:08:14;14.60;99.90
19164;DHT22;9714;51.208;4.242;2023-05-10T04:10:42;14.50;99.90
19164;DHT22;9714;51.208;4.242;2023-05-10T04:13:10;14.60;99.90
19164;DHT22;9714;51.208;4.242;2023-05-10T04:15:37;14.70;99.90
19164;DHT22;9714;51.208;4.242;2023-05-10T04:18:04;14.70;99.90
19164;DHT22;9714;51.208;4.242;2023-05-10T04:20:34;14.80;99.90
19164;DHT22;9714;51.208;4.242;2023-05-10T04:23:02;14.60;99.90
19164;DHT22;9714;51.208;4.242;2023-05-10T04:25:29;14.50;99.90
19164;DHT22;9714;51.208;4.242;2023-05-10T04:28:03;14.70;99.90
19164;DHT22;9714;51.208;4.242;2023-05-10T04:30:33;14.70;99.90
19164;DHT22;9714;51.208;4.242;2023-05-10T04:33:01;14.60;99.90
19164;DHT22;9714;51.208;4.242;2023-05-10T04:35:28;14.80;99.90
19164;DHT22;9714;51.208;4.242;2023-05-10T04:37:55;14.80;99.90
19164;DHT22;9714;51.208;4.242;2023-05-10T04:40:22;14.70;99.90
19164;DHT22;9714;51.208;4.242;2023-05-10T04:42:50;14.70;99.90
19164;DHT22;9714;51.208;4.242;2023-05-10T04:45:17;14.80;99.90
19164;DHT22;9714;51.208;4.242;2023-05-10T04:47:46;14.90;99.90
19164;DHT22;9714;51.208;4.242;2023-05-10T04:50:14;14.80;99.90
19164;DHT22;9714;51.208;4.242;2023-05-10T04:52:41;15.10;99.90
19164;DHT22;9714;51.208;4.242;2023-05-10T04:55:08;15.00;99.90
19164;DHT22;9714;51.208;4.242;2023-05-10T04:57:36;15.20;99.90
19164;DHT22;9714;51.208;4.242;2023-05-10T05:00:03;15.20;99.90
19164;DHT22;9714;51.208;4.242;2023-05-10T05:02:31;15.20;99.90
19164;DHT22;9714;51.208;4.242;2023-05-10T05:04:59;15.30;99.90
19164;DHT22;9714;51.208;4.242;2023-05-10T05:07:27;15.30;99.90
19164;DHT22;9714;51.208;4.242;2023-05-10T05:09:57;15.20;99.90
19164;DHT22;9714;51.208;4.242;2023-05-10T05:12:24;15.20;99.90
19164;DHT22;9714;51.208;4.242;2023-05-10T05:14:51;15.30;99.90
19164;DHT22;9714;51.208;4.242;2023-05-10T05:17:20;15.30;99.90
19164;DHT22;9714;51.208;4.242;2023-05-10T05:19:47;15.30;99.90
19164;DHT22;9714;51.208;4.242;2023-05-10T05:22:16;15.30;99.90
19164;DHT22;9714;51.208;4.242;2023-05-10T05:24:43;15.20;99.90
19164;DHT22;9714;51.208;4.242;2023-05-10T05:27:10;15.10;99.90
19164;DHT22;9714;51.208;4.242;2023-05-10T05:29:40;15.20;99.90
19164;DHT22;9714;51.208;4.242;2023-05-10T05:32:08;15.20;99.90
19164;DHT22;9714;51.208;4.242;2023-05-10T05:34:36;15.20;99.90
19164;DHT22;9714;51.208;4.242;2023-05-10T05:37:03;15.40;99.90
19164;DHT22;9714;51.208;4.242;2023-05-10T05:39:31;15.20;99.90
19164;DHT22;9714;51.208;4.242;2023-05-10T05:42:05;15.10;99.90
19164;DHT22;9714;51.208;4.242;2023-05-10T05:44:32;15.00;99.90
19164;DHT22;9714;51.208;4.242;2023-05-10T05:47:05;15.00;99.90
19164;DHT22;9714;51.208;4.242;2023-05-10T05:49:34;15.10;99.90
19164;DHT22;9714;51.208;4.242;2023-05-10T05:52:03;15.20;99.90
19164;DHT22;9714;51.208;4.242;2023-05-10T05:54:32;15.30;99.90
19164;DHT22;9714;51.208;4.242;2023-05-10T05:56:59;15.30;99.90
19164;DHT22;9714;51.208;4.242;2023-05-10T05:59:27;15.50;99.90
19164;DHT22;9714;51.208;4.242;2023-05-10T06:01:55;15.60;99.90
19164;DHT22;9714;51.208;4.242;2023-05-10T06:04:23;15.60;99.90
19164;DHT22;9714;51.208;4.242;2023-05-10T06:06:51;15.70;99.90
19164;DHT22;9714;51.208;4.242;2023-05-10T06:09:18;15.50;99.90
19164;DHT22;9714;51.208;4.242;2023-05-10T06:11:47;15.60;99.90
19164;DHT22;9714;51.208;4.242;2023-05-10T06:16:43;15.80;99.90
19164;DHT22;9714;51.208;4.242;2023-05-10T06:19:10;15.70;99.90
19164;DHT22;9714;51.208;4.242;2023-05-10T06:21:38;15.80;99.90
19164;DHT22;9714;51.208;4.242;2023-05-10T06:24:06;15.90;99.90
19164;DHT22;9714;51.208;4.242;2023-05-10T06:26:35;15.80;99.90
19164;DHT22;9714;51.208;4.242;2023-05-10T06:29:04;15.70;99.90
19164;DHT22;9714;51.208;4.242;2023-05-10T06:31:32;15.90;99.90
19164;DHT22;9714;51.208;4.242;2023-05-10T06:34:00;16.20;99.90
19164;DHT22;9714;51.208;4.242;2023-05-10T06:36:28;16.30;99.90
19164;DHT22;9714;51.208;4.242;2023-05-10T06:38:56;16.40;99.90
19164;DHT22;9714;51.208;4.242;2023-05-10T06:41:31;16.40;99.90
19164;DHT22;9714;51.208;4.242;2023-05-10T06:43:58;16.50;99.90
19164;DHT22;9714;51.208;4.242;2023-05-10T06:46:27;16.60;99.90
19164;DHT22;9714;51.208;4.242;2023-05-10T06:48:54;16.60;99.90
19164;DHT22;9714;51.208;4.242;2023-05-10T06:51:23;16.70;99.90
19164;DHT22;9714;51.208;4.242;2023-05-10T06:53:51;16.80;99.90
19164;DHT22;9714;51.208;4.242;2023-05-10T06:56:20;16.80;99.90
19164;DHT22;9714;51.208;4.242;2023-05-10T06:58:48;17.10;99.90
19164;DHT22;9714;51.208;4.242;2023-05-10T07:01:16;17.30;99.90
19164;DHT22;9714;51.208;4.242;2023-05-10T07:03:46;17.30;99.90
19164;DHT22;9714;51.208;4.242;2023-05-10T07:06:13;17.20;99.90
19164;DHT22;9714;51.208;4.242;2023-05-10T07:08:41;17.30;99.90
19164;DHT22;9714;51.208;4.242;2023-05-10T07:11:08;17.60;99.90
19164;DHT22;9714;51.208;4.242;2023-05-10T07:13:37;17.80;99.90
19164;DHT22;9714;51.208;4.242;2023-05-10T07:16:07;18.00;99.90
19164;DHT22;9714;51.208;4.242;2023-05-10T07:18:35;18.10;99.90
19164;DHT22;9714;51.208;4.242;2023-05-10T07:21:05;18.00;99.90
19164;DHT22;9714;51.208;4.242;2023-05-10T07:23:32;18.10;99.90
19164;DHT22;9714;51.208;4.242;2023-05-10T07:26:01;17.90;99.90
19164;DHT22;9714;51.208;4.242;2023-05-10T07:28:34;17.90;99.90
19164;DHT22;9714;51.208;4.242;2023-05-10T07:31:03;17.90;99.90
19164;DHT22;9714;51.208;4.242;2023-05-10T07:33:30;17.80;99.90
19164;DHT22;9714;51.208;4.242;2023-05-10T07:35:58;17.80;99.90
19164;DHT22;9714;51.208;4.242;2023-05-10T07:38:27;17.80;99.90
19164;DHT22;9714;51.208;4.242;2023-05-10T07:40:55;17.70;99.90
19164;DHT22;9714;51.208;4.242;2023-05-10T07:43:22;17.80;99.90
19164;DHT22;9714;51.208;4.242;2023-05-10T07:45:50;18.20;99.90
19164;DHT22;9714;51.208;4.242;2023-05-10T07:48:18;18.40;99.90
19164;DHT22;9714;51.208;4.242;2023-05-10T07:50:46;18.50;99.90
19164;DHT22;9714;51.208;4.242;2023-05-10T07:53:14;18.60;99.90
19164;DHT22;9714;51.208;4.242;2023-05-10T07:55:44;18.50;99.90
19164;DHT22;9714;51.208;4.242;2023-05-10T07:58:11;18.80;99.90
19164;DHT22;9714;51.208;4.242;2023-05-10T08:00:38;19.00;99.90
19164;DHT22;9714;51.208;4.242;2023-05-10T08:03:06;19.00;99.90
19164;DHT22;9714;51.208;4.242;2023-05-10T08:05:35;19.10;99.90
19164;DHT22;9714;51.208;4.242;2023-05-10T08:08:02;19.30;99.90
19164;DHT22;9714;51.208;4.242;2023-05-10T08:10:31;19.30;99.90
19164;DHT22;9714;51.208;4.242;2023-05-10T08:13:05;19.70;99.90
19164;DHT22;9714;51.208;4.242;2023-05-10T08:15:33;20.00;99.90
19164;DHT22;9714;51.208;4.242;2023-05-10T08:18:00;20.40;99.90
19164;DHT22;9714;51.208;4.242;2023-05-10T08:20:27;20.40;99.90
19164;DHT22;9714;51.208;4.242;2023-05-10T08:22:55;20.00;99.90
19164;DHT22;9714;51.208;4.242;2023-05-10T08:25:25;19.80;99.90
19164;DHT22;9714;51.208;4.242;2023-05-10T08:27:53;20.00;99.90
19164;DHT22;9714;51.208;4.242;2023-05-10T08:30:21;21.00;99.90
19164;DHT22;9714;51.208;4.242;2023-05-10T08:32:50;21.80;99.90
19164;DHT22;9714;51.208;4.242;2023-05-10T08:35:17;21.40;99.90
19164;DHT22;9714;51.208;4.242;2023-05-10T08:37:44;21.40;99.90
19164;DHT22;9714;51.208;4.242;2023-05-10T08:40:15;21.20;99.90
19164;DHT22;9714;51.208;4.242;2023-05-10T08:42:47;20.60;99.90
19164;DHT22;9714;51.208;4.242;2023-05-10T08:45:18;19.80;99.90
19164;DHT22;9714;51.208;4.242;2023-05-10T08:47:48;19.50;99.90
19164;DHT22;9714;51.208;4.242;2023-05-10T08:50:17;19.40;99.90
19164;DHT22;9714;51.208;4.242;2023-05-10T08:52:48;19.10;99.90
19164;DHT22;9714;51.208;4.242;2023-05-10T08:55:20;19.10;99.90
19164;DHT22;9714;51.208;4.242;2023-05-10T08:57:50;19.00;99.90
19164;DHT22;9714;51.208;4.242;2023-05-10T09:00:18;19.00;99.90
19164;DHT22;9714;51.208;4.242;2023-05-10T09:02:49;19.10;99.90
19164;DHT22;9714;51.208;4.242;2023-05-10T09:05:17;19.10;99.90
19164;DHT22;9714;51.208;4.242;2023-05-10T09:07:50;18.80;99.90
19164;DHT22;9714;51.208;4.242;2023-05-10T09:10:20;18.60;99.90
19164;DHT22;9714;51.208;4.242;2023-05-10T09:12:48;18.80;99.90
19164;DHT22;9714;51.208;4.242;2023-05-10T09:15:17;19.30;99.90
19164;DHT22;9714;51.208;4.242;2023-05-10T09:17:46;19.70;99.90
19164;DHT22;9714;51.208;4.242;2023-05-10T09:20:17;20.00;99.90
19164;DHT22;9714;51.208;4.242;2023-05-10T09:22:46;20.40;99.90
19164;DHT22;9714;51.208;4.242;2023-05-10T09:25:15;21.90;99.90
19164;DHT22;9714;51.208;4.242;2023-05-10T09:27:45;23.60;99.90
19164;DHT22;9714;51.208;4.242;2023-05-10T09:30:17;24.70;99.90
19164;DHT22;9714;51.208;4.242;2023-05-10T09:32:47;25.30;99.90
19164;DHT22;9714;51.208;4.242;2023-05-10T09:35:15;24.70;99.90
19164;DHT22;9714;51.208;4.242;2023-05-10T09:37:46;24.50;99.90
19164;DHT22;9714;51.208;4.242;2023-05-10T09:40:17;23.80;99.90
19164;DHT22;9714;51.208;4.242;2023-05-10T09:42:51;23.60;99.90
19164;DHT22;9714;51.208;4.242;2023-05-10T09:45:21;24.10;99.90
19164;DHT22;9714;51.208;4.242;2023-05-10T09:47:50;23.90;99.90
19164;DHT22;9714;51.208;4.242;2023-05-10T09:50:17;23.50;99.90
19164;DHT22;9714;51.208;4.242;2023-05-10T09:52:52;23.70;99.90
19164;DHT22;9714;51.208;4.242;2023-05-10T09:55:21;24.30;99.90
19164;DHT22;9714;51.208;4.242;2023-05-10T09:57:58;24.90;99.90
19164;DHT22;9714;51.208;4.242;2023-05-10T10:00:26;25.60;99.90
19164;DHT22;9714;51.208;4.242;2023-05-10T10:02:56;25.10;99.90
19164;DHT22;9714;51.208;4.242;2023-05-10T10:05:28;24.90;99.90
19164;DHT22;9714;51.208;4.242;2023-05-10T10:07:57;23.80;99.90
19164;DHT22;9714;51.208;4.242;2023-05-10T10:10:26;23.20;99.90
19164;DHT22;9714;51.208;4.242;2023-05-10T10:12:53;21.90;99.90
19164;DHT22;9714;51.208;4.242;2023-05-10T10:15:22;21.60;99.90
19164;DHT22;9714;51.208;4.242;2023-05-10T10:17:52;20.70;99.90
19164;DHT22;9714;51.208;4.242;2023-05-10T10:20:21;20.20;99.90
19164;DHT22;9714;51.208;4.242;2023-05-10T10:22:50;20.30;99.90
19164;DHT22;9714;51.208;4.242;2023-05-10T10:25:20;20.50;99.90
19164;DHT22;9714;51.208;4.242;2023-05-10T10:27:57;20.60;99.90
19164;DHT22;9714;51.208;4.242;2023-05-10T10:30:35;20.30;99.90
19164;DHT22;9714;51.208;4.242;2023-05-10T10:33:25;19.60;99.90
19164;DHT22;9714;51.208;4.242;2023-05-10T10:35:57;19.30;99.90
19164;DHT22;9714;51.208;4.242;2023-05-10T10:38:36;19.20;99.90
19164;DHT22;9714;51.208;4.242;2023-05-10T10:41:09;19.60;99.90
19164;DHT22;9714;51.208;4.242;2023-05-10T10:43:40;19.40;99.90
19164;DHT22;9714;51.208;4.242;2023-05-10T10:46:12;19.10;99.90
19164;DHT22;9714;51.208;4.242;2023-05-10T10:48:41;19.10;99.90
19164;DHT22;9714;51.208;4.242;2023-05-10T10:51:10;19.10;99.90
19164;DHT22;9714;51.208;4.242;2023-05-10T10:53:43;19.10;99.90
19164;DHT22;9714;51.208;4.242;2023-05-10T10:56:13;19.20;99.90
19164;DHT22;9714;51.208;4.242;2023-05-10T10:58:49;19.10;99.90
19164;DHT22;9714;51.208;4.242;2023-05-10T11:01:17;19.50;99.90
19164;DHT22;9714;51.208;4.242;2023-05-10T11:04:18;20.20;99.90
19164;DHT22;9714;51.208;4.242;2023-05-10T11:06:48;20.30;99.90
19164;DHT22;9714;51.208;4.242;2023-05-10T11:09:15;20.10;99.90
19164;DHT22;9714;51.208;4.242;2023-05-10T11:11:53;20.50;99.90
19164;DHT22;9714;51.208;4.242;2023-05-10T11:14:22;21.20;99.90
19164;DHT22;9714;51.208;4.242;2023-05-10T11:16:49;21.30;99.90
19164;DHT22;9714;51.208;4.242;2023-05-10T11:19:17;21.40;99.90
19164;DHT22;9714;51.208;4.242;2023-05-10T11:21:46;21.10;99.90
19164;DHT22;9714;51.208;4.242;2023-05-10T11:24:19;20.50;99.90
19164;DHT22;9714;51.208;4.242;2023-05-10T11:26:54;20.10;99.90
19164;DHT22;9714;51.208;4.242;2023-05-10T11:29:21;19.80;99.90
19164;DHT22;9714;51.208;4.242;2023-05-10T11:31:51;19.90;99.90
19164;DHT22;9714;51.208;4.242;2023-05-10T11:34:26;19.90;99.90
19164;DHT22;9714;51.208;4.242;2023-05-10T11:36:56;19.40;99.90
19164;DHT22;9714;51.208;4.242;2023-05-10T11:39:27;19.30;99.90
19164;DHT22;9714;51.208;4.242;2023-05-10T11:41:59;19.40;99.90
19164;DHT22;9714;51.208;4.242;2023-05-10T11:44:29;19.20;99.90
19164;DHT22;9714;51.208;4.242;2023-05-10T11:46:58;19.00;99.90
19164;DHT22;9714;51.208;4.242;2023-05-10T11:49:26;19.20;99.90
19164;DHT22;9714;51.208;4.242;2023-05-10T11:52:04;19.30;99.90
19164;DHT22;9714;51.208;4.242;2023-05-10T11:54:31;19.10;99.90
19164;DHT22;9714;51.208;4.242;2023-05-10T11:57:03;19.10;99.90
19164;DHT22;9714;51.208;4.242;2023-05-10T11:59:31;19.60;99.90
19164;DHT22;9714;51.208;4.242;2023-05-10T12:01:59;20.50;99.90
19164;DHT22;9714;51.208;4.242;2023-05-10T12:04:27;20.90;99.90
19164;DHT22;9714;51.208;4.242;2023-05-10T12:06:55;21.20;99.90
19164;DHT22;9714;51.208;4.242;2023-05-10T12:09:30;20.70;99.90
19164;DHT22;9714;51.208;4.242;2023-05-10T12:12:03;20.70;99.90
19164;DHT22;9714;51.208;4.242;2023-05-10T12:14:34;20.30;99.90
19164;DHT22;9714;51.208;4.242;2023-05-10T12:17:01;19.90;99.90
19164;DHT22;9714;51.208;4.242;2023-05-10T12:19:37;19.40;99.90
19164;DHT22;9714;51.208;4.242;2023-05-10T12:22:12;18.80;99.90
19164;DHT22;9714;51.208;4.242;2023-05-10T12:24:40;18.80;99.90
19164;DHT22;9714;51.208;4.242;2023-05-10T12:27:10;18.30;99.90
19164;DHT22;9714;51.208;4.242;2023-05-10T12:29:41;18.30;99.90
19164;DHT22;9714;51.208;4.242;2023-05-10T12:32:12;18.20;99.90
19164;DHT22;9714;51.208;4.242;2023-05-10T12:34:39;18.40;99.90
19164;DHT22;9714;51.208;4.242;2023-05-10T12:37:06;18.40;99.90
19164;DHT22;9714;51.208;4.242;2023-05-10T12:39:44;18.30;99.90
19164;DHT22;9714;51.208;4.242;2023-05-10T12:42:13;18.30;99.90
19164;DHT22;9714;51.208;4.242;2023-05-10T12:44:40;18.40;99.90
19164;DHT22;9714;51.208;4.242;2023-05-10T12:47:10;18.40;99.90
19164;DHT22;9714;51.208;4.242;2023-05-10T12:49:38;18.40;99.90
19164;DHT22;9714;51.208;4.242;2023-05-10T12:52:06;18.30;99.90
19164;DHT22;9714;51.208;4.242;2023-05-10T12:54:33;18.50;99.90
19164;DHT22;9714;51.208;4.242;2023-05-10T12:57:01;18.60;99.90
19164;DHT22;9714;51.208;4.242;2023-05-10T12:59:30;18.60;99.90
19164;DHT22;9714;51.208;4.242;2023-05-10T13:01:58;18.30;99.90
19164;DHT22;9714;51.208;4.242;2023-05-10T13:04:31;18.40;99.90
19164;DHT22;9714;51.208;4.242;2023-05-10T13:07:00;18.60;99.90
19164;DHT22;9714;51.208;4.242;2023-05-10T13:09:27;18.30;99.90
19164;DHT22;9714;51.208;4.242;2023-05-10T13:11:56;18.00;99.90
19164;DHT22;9714;51.208;4.242;2023-05-10T13:14:24;17.80;99.90
19164;DHT22;9714;51.208;4.242;2023-05-10T13:16:52;17.90;99.90
19164;DHT22;9714;51.208;4.242;2023-05-10T13:19:20;18.00;99.90
19164;DHT22;9714;51.208;4.242;2023-05-10T13:21:48;17.70;99.90
19164;DHT22;9714;51.208;4.242;2023-05-10T13:24:15;17.50;99.90
19164;DHT22;9714;51.208;4.242;2023-05-10T13:26:46;17.40;99.90
19164;DHT22;9714;51.208;4.242;2023-05-10T13:29:13;17.40;99.90
19164;DHT22;9714;51.208;4.242;2023-05-10T13:31:43;17.60;99.90
19164;DHT22;9714;51.208;4.242;2023-05-10T13:34:12;17.50;99.90
19164;DHT22;9714;51.208;4.242;2023-05-10T13:36:39;17.40;99.90
19164;DHT22;9714;51.208;4.242;2023-05-10T13:39:07;17.40;99.90
19164;DHT22;9714;51.208;4.242;2023-05-10T13:41:36;17.60;99.90
19164;DHT22;9714;51.208;4.242;2023-05-10T13:44:04;17.70;99.90
19164;DHT22;9714;51.208;4.242;2023-05-10T13:46:34;17.90;99.90
19164;DHT22;9714;51.208;4.242;2023-05-10T13:49:02;18.10;99.90
19164;DHT22;9714;51.208;4.242;2023-05-10T13:51:31;17.90;99.90
19164;DHT22;9714;51.208;4.242;2023-05-10T13:54:00;18.10;99.90
19164;DHT22;9714;51.208;4.242;2023-05-10T13:56:28;18.30;99.90
19164;DHT22;9714;51.208;4.242;2023-05-10T13:58:56;18.40;99.90
19164;DHT22;9714;51.208;4.242;2023-05-10T14:01:24;18.70;99.90
19164;DHT22;9714;51.208;4.242;2023-05-10T14:03:51;19.10;99.90
19164;DHT22;9714;51.208;4.242;2023-05-10T14:06:19;19.20;99.90
19164;DHT22;9714;51.208;4.242;2023-05-10T14:08:48;19.20;99.90
19164;DHT22;9714;51.208;4.242;2023-05-10T14:11:22;18.90;99.90
19164;DHT22;9714;51.208;4.242;2023-05-10T14:13:49;19.10;99.90
19164;DHT22;9714;51.208;4.242;2023-05-10T14:16:17;19.30;99.90
19164;DHT22;9714;51.208;4.242;2023-05-10T14:18:48;19.30;99.90
19164;DHT22;9714;51.208;4.242;2023-05-10T14:21:16;19.20;99.90
19164;DHT22;9714;51.208;4.242;2023-05-10T14:23:43;19.00;99.90
19164;DHT22;9714;51.208;4.242;2023-05-10T14:26:13;18.80;99.90
19164;DHT22;9714;51.208;4.242;2023-05-10T14:28:45;18.50;99.90
19164;DHT22;9714;51.208;4.242;2023-05-10T14:31:12;18.00;99.90
19164;DHT22;9714;51.208;4.242;2023-05-10T14:33:41;17.50;99.90
19164;DHT22;9714;51.208;4.242;2023-05-10T14:36:10;17.30;99.90
19164;DHT22;9714;51.208;4.242;2023-05-10T14:38:44;16.90;99.90
19164;DHT22;9714;51.208;4.242;2023-05-10T14:41:19;16.80;99.90
19164;DHT22;9714;51.208;4.242;2023-05-10T14:43:47;16.70;99.90
19164;DHT22;9714;51.208;4.242;2023-05-10T14:46:14;17.00;99.90
19164;DHT22;9714;51.208;4.242;2023-05-10T14:49:12;16.90;99.90
19164;DHT22;9714;51.208;4.242;2023-05-10T14:51:48;16.70;99.90
19164;DHT22;9714;51.208;4.242;2023-05-10T14:54:17;16.40;99.90
19164;DHT22;9714;51.208;4.242;2023-05-10T14:56:46;16.50;99.90
19164;DHT22;9714;51.208;4.242;2023-05-10T14:59:16;16.30;99.90
19164;DHT22;9714;51.208;4.242;2023-05-10T15:01:46;16.40;99.90
19164;DHT22;9714;51.208;4.242;2023-05-10T15:04:13;16.30;99.90
19164;DHT22;9714;51.208;4.242;2023-05-10T15:06:42;16.30;99.90
19164;DHT22;9714;51.208;4.242;2023-05-10T15:09:12;16.50;99.90
19164;DHT22;9714;51.208;4.242;2023-05-10T15:11:48;16.50;99.90
19164;DHT22;9714;51.208;4.242;2023-05-10T15:14:16;16.50;99.90
19164;DHT22;9714;51.208;4.242;2023-05-10T15:16:48;16.30;99.90
19164;DHT22;9714;51.208;4.242;2023-05-10T15:19:16;16.30;99.90
19164;DHT22;9714;51.208;4.242;2023-05-10T15:21:45;16.30;99.90
19164;DHT22;9714;51.208;4.242;2023-05-10T15:26:43;16.10;99.90
19164;DHT22;9714;51.208;4.242;2023-05-10T15:29:12;16.10;99.90
19164;DHT22;9714;51.208;4.242;2023-05-10T15:31:47;16.00;99.90
19164;DHT22;9714;51.208;4.242;2023-05-10T15:34:15;16.00;99.90
19164;DHT22;9714;51.208;4.242;2023-05-10T15:36:45;16.10;99.90
19164;DHT22;9714;51.208;4.242;2023-05-10T15:39:13;16.10;99.90
19164;DHT22;9714;51.208;4.242;2023-05-10T15:41:41;16.10;99.90
19164;DHT22;9714;51.208;4.242;2023-05-10T15:44:08;16.20;99.90
19164;DHT22;9714;51.208;4.242;2023-05-10T15:46:39;16.10;99.90
19164;DHT22;9714;51.208;4.242;2023-05-10T15:49:06;16.10;99.90
19164;DHT22;9714;51.208;4.242;2023-05-10T15:51:39;16.30;99.90
19164;DHT22;9714;51.208;4.242;2023-05-10T15:54:07;16.20;99.90
19164;DHT22;9714;51.208;4.242;2023-05-10T15:56:40;16.30;99.90
19164;DHT22;9714;51.208;4.242;2023-05-10T15:59:16;16.00;99.90
19164;DHT22;9714;51.208;4.242;2023-05-10T16:02:02;16.20;99.90
19164;DHT22;9714;51.208;4.242;2023-05-10T16:04:29;16.00;99.90
19164;DHT22;9714;51.208;4.242;2023-05-10T16:06:57;16.20;99.90
19164;DHT22;9714;51.208;4.242;2023-05-10T16:09:31;15.90;99.90